Terminal Aerodrome Forecast
Issued by NWS

Home | Current Version | Previous Version | Text Only | Print | Product List | Glossary On
Versions: 1 2 3 4 5 6 7 8 9 10
463
FTUS43 KDVN 232320
TAFCID
TAF
KCID 232320Z 2400/2424 20006KT P6SM SCT200
     FM241500 15012KT P6SM SCT200
     FM242000 16014G22KT P6SM SCT200=

USA.gov is the U.S. government's official web portal to all federal, state and local government web resources and services.